Time;durP1;ratioP1;P1;durP2;ratioP2;P2;SDS_P1;SDS_P2;PMS_P1;PMS_P2;Temp;Humidity;BMP_temperature;BMP_pressure;BME280_temperature;BME280_humidity;BME280_pressure;Samples;Min_cycle;Max_cycle;Signal;HPM_P1;HPM_P2
2022/08/01 00:00:07;;;;;;;0.00;0.00;;;19.70;99.90;;;;;;4943153;28;20070;-84
2022/08/01 00:02:35;;;;;;;0.05;0.05;;;19.60;99.90;;;;;;4951094;28;20381;-84
2022/08/01 00:05:05;;;;;;;0.00;0.00;;;19.60;99.90;;;;;;4938622;28;20046;-84
2022/08/01 00:07:32;;;;;;;;;;;19.60;99.90;;;;;;4948451;28;20047;-83
2022/08/01 00:09:59;;;;;;;0.00;0.00;;;19.60;99.90;;;;;;4964494;28;19927;-83
2022/08/01 00:12:26;;;;;;;0.00;0.00;;;19.60;99.90;;;;;;4955823;28;20039;-83
2022/08/01 00:14:52;;;;;;;0.00;0.00;;;19.60;99.90;;;;;;4929126;29;20091;-84
2022/08/01 00:17:21;;;;;;;0.00;0.00;;;19.60;99.90;;;;;;4952689;28;20051;-83
2022/08/01 00:19:47;;;;;;;0.00;0.00;;;19.60;99.90;;;;;;4941665;28;20042;-83
2022/08/01 00:22:14;;;;;;;0.00;0.00;;;19.60;99.90;;;;;;4957388;28;20055;-82
2022/08/01 00:24:41;;;;;;;0.00;0.00;;;19.50;99.90;;;;;;4958242;28;20098;-82
2022/08/01 00:27:08;;;;;;;0.00;0.00;;;19.50;99.90;;;;;;4955495;28;20055;-83
2022/08/01 00:29:35;;;;;;;0.00;0.00;;;19.40;99.90;;;;;;4955384;28;20050;-82
2022/08/01 00:32:23;;;;;;;0.00;0.00;;;19.50;99.90;;;;;;4948503;28;20051;-81
2022/08/01 00:34:50;;;;;;;0.00;0.00;;;19.50;99.90;;;;;;4940976;29;20043;-82
2022/08/01 00:37:17;;;;;;;0.00;0.00;;;19.50;99.90;;;;;;4953013;28;20043;-83
2022/08/01 00:39:43;;;;;;;0.00;0.00;;;19.50;99.90;;;;;;4957457;28;20047;-83
2022/08/01 00:42:12;;;;;;;0.00;0.00;;;19.50;99.90;;;;;;4951847;28;20055;-83
2022/08/01 00:44:39;;;;;;;0.00;0.00;;;19.30;99.90;;;;;;4935802;28;20036;-83
2022/08/01 00:47:07;;;;;;;0.00;0.00;;;19.20;99.90;;;;;;4955151;28;20047;-82
2022/08/01 00:49:35;;;;;;;0.00;0.00;;;19.20;99.90;;;;;;4941715;28;20102;-81
2022/08/01 00:52:04;;;;;;;0.00;0.00;;;19.20;99.90;;;;;;4955598;28;20054;-83
2022/08/01 00:54:31;;;;;;;0.00;0.00;;;19.30;99.90;;;;;;4945582;29;20051;-83
2022/08/01 00:56:59;;;;;;;0.00;0.00;;;19.40;99.90;;;;;;4952719;28;20412;-83
2022/08/01 00:59:26;;;;;;;0.00;0.00;;;19.50;99.90;;;;;;4953552;28;20505;-84
2022/08/01 01:01:54;;;;;;;0.00;0.00;;;19.50;99.90;;;;;;4934659;28;20051;-84
2022/08/01 01:04:22;;;;;;;0.00;0.00;;;19.40;99.90;;;;;;4936543;28;20083;-84
2022/08/01 01:06:57;;;;;;;0.00;0.00;;;19.30;99.90;;;;;;4953654;28;20055;-83
2022/08/01 01:09:33;;;;;;;0.00;0.00;;;19.20;99.90;;;;;;4953644;28;20519;-84
2022/08/01 01:12:11;;;;;;;0.00;0.00;;;19.20;99.90;;;;;;4938785;28;20051;-84
2022/08/01 01:14:46;;;;;;;0.00;0.00;;;19.20;99.90;;;;;;4951449;28;20047;-84
2022/08/01 01:17:16;;;;;;;0.00;0.00;;;19.10;99.90;;;;;;4952530;28;20043;-83
2022/08/01 01:19:59;;;;;;;0.00;0.00;;;19.10;99.90;;;;;;4953798;28;20051;-84
2022/08/01 01:22:38;;;;;;;0.00;0.00;;;19.00;99.90;;;;;;4956651;28;20054;-83
2022/08/01 01:25:19;;;;;;;0.00;0.00;;;19.00;99.90;;;;;;4950891;28;20047;-84
2022/08/01 01:27:54;;;;;;;0.00;0.00;;;19.00;99.90;;;;;;4955381;28;20054;-84
2022/08/01 01:30:25;;;;;;;0.00;0.00;;;19.00;99.90;;;;;;4956951;28;20191;-84
2022/08/01 01:32:53;;;;;;;0.00;0.00;;;19.20;99.90;;;;;;4954891;28;20055;-83
2022/08/01 01:35:24;;;;;;;0.00;0.00;;;19.10;99.90;;;;;;4951496;28;20447;-84
2022/08/01 01:37:57;;;;;;;0.00;0.00;;;19.10;99.90;;;;;;4937001;29;20043;-84
2022/08/01 01:40:25;;;;;;;0.00;0.00;;;20.80;99.90;;;;;;4948829;28;20472;-84
2022/08/01 01:42:54;;;;;;;0.03;0.03;;;19.10;99.90;;;;;;4935195;29;20043;-84
2022/08/01 01:45:24;;;;;;;0.00;0.00;;;19.10;99.90;;;;;;4934087;28;20047;-84
2022/08/01 01:47:53;;;;;;;0.00;0.00;;;19.10;99.90;;;;;;4953940;28;20046;-84
2022/08/01 01:50:21;;;;;;;0.00;0.00;;;19.10;99.90;;;;;;4950130;28;20515;-83
2022/08/01 01:52:49;;;;;;;0.00;0.00;;;19.00;99.90;;;;;;4954118;28;20054;-82
2022/08/01 01:55:18;;;;;;;0.00;0.00;;;19.00;99.90;;;;;;4953176;28;20043;-83
2022/08/01 01:57:45;;;;;;;0.00;0.00;;;19.20;99.90;;;;;;4952088;28;20047;-83
2022/08/01 02:00:14;;;;;;;0.00;0.00;;;19.10;99.90;;;;;;4932180;28;20090;-82
2022/08/01 02:02:42;;;;;;;0.00;0.00;;;19.00;99.90;;;;;;4950959;28;20047;-83
2022/08/01 02:05:11;;;;;;;0.00;0.00;;;19.00;99.90;;;;;;4949598;28;20106;-83
2022/08/01 02:07:39;;;;;;;0.00;0.00;;;19.00;99.90;;;;;;4953235;28;20102;-82
2022/08/01 02:10:08;;;;;;;0.00;0.00;;;18.90;99.90;;;;;;4950165;28;20093;-83
2022/08/01 02:12:37;;;;;;;0.00;0.00;;;18.90;99.90;;;;;;4950820;28;20098;-83
2022/08/01 02:15:06;;;;;;;0.00;0.00;;;18.90;99.90;;;;;;4951247;28;20051;-82
2022/08/01 02:17:39;;;;;;;0.00;0.00;;;19.00;99.90;;;;;;4949947;28;20047;-83
2022/08/01 02:20:09;;;;;;;0.00;0.00;;;18.90;99.90;;;;;;4950844;28;20051;-83
2022/08/01 02:22:41;;;;;;;0.00;0.00;;;18.90;99.90;;;;;;4950694;28;20566;-83
2022/08/01 02:25:15;;;;;;;0.00;0.00;;;18.90;99.90;;;;;;4949796;28;20088;-83
2022/08/01 02:27:51;;;;;;;0.00;0.00;;;18.90;99.90;;;;;;4954138;28;20051;-83
2022/08/01 02:30:19;;;;;;;0.00;0.00;;;18.80;99.90;;;;;;4936793;28;20688;-84
2022/08/01 02:32:49;;;;;;;0.00;0.00;;;18.80;99.90;;;;;;4952075;28;20039;-83
2022/08/01 02:35:23;;;;;;;0.00;0.00;;;18.80;99.90;;;;;;4953939;28;20031;-84
2022/08/01 02:37:51;;;;;;;0.00;0.00;;;18.90;99.90;;;;;;4953031;28;20047;-83
2022/08/01 02:40:18;;;;;;;0.00;0.00;;;18.90;99.90;;;;;;4954243;28;20102;-83
2022/08/01 02:42:49;;;;;;;0.00;0.00;;;18.90;99.90;;;;;;4946609;28;20039;-83
2022/08/01 02:45:18;;;;;;;0.00;0.00;;;18.80;99.90;;;;;;4949358;28;20050;-82
2022/08/01 02:47:47;;;;;;;0.00;0.00;;;18.80;99.90;;;;;;4953852;28;20055;-82
2022/08/01 02:50:16;;;;;;;0.00;0.00;;;18.80;99.90;;;;;;4938108;29;20043;-83
2022/08/01 02:52:48;;;;;;;0.05;0.05;;;18.80;99.90;;;;;;4954235;28;20468;-83
2022/08/01 02:55:16;;;;;;;0.00;0.00;;;18.60;99.90;;;;;;4957109;28;20035;-83
2022/08/01 02:57:46;;;;;;;0.00;0.00;;;19.10;99.90;;;;;;4949769;28;20082;-82
2022/08/01 03:00:19;;;;;;;0.00;0.00;;;18.60;99.90;;;;;;4928038;28;20048;-83
2022/08/01 03:02:54;;;;;;;0.00;0.00;;;18.60;99.90;;;;;;4950724;28;20039;-83
2022/08/01 03:05:22;;;;;;;0.00;0.00;;;18.60;99.90;;;;;;4953119;28;20050;-83
2022/08/01 03:07:52;;;;;;;0.00;0.00;;;18.50;99.90;;;;;;4954227;28;20051;-83
2022/08/01 03:10:22;;;;;;;0.00;0.00;;;18.60;99.90;;;;;;4950903;28;20071;-83
2022/08/01 03:12:50;;;;;;;0.00;0.00;;;18.60;99.90;;;;;;4944008;28;20061;-82
2022/08/01 03:15:18;;;;;;;0.00;0.00;;;18.60;99.90;;;;;;4943588;28;20058;-82
2022/08/01 03:17:46;;;;;;;0.00;0.00;;;18.60;99.90;;;;;;4942611;28;20494;-83
2022/08/01 03:20:15;;;;;;;0.00;0.00;;;18.70;99.90;;;;;;4949485;28;20047;-82
2022/08/01 03:22:44;;;;;;;0.00;0.00;;;18.60;99.90;;;;;;4936297;28;20051;-82
2022/08/01 03:25:14;;;;;;;0.00;0.00;;;18.50;99.90;;;;;;4951421;28;20515;-83
2022/08/01 03:27:43;;;;;;;0.00;0.00;;;18.50;99.90;;;;;;4950751;28;20047;-83
2022/08/01 03:30:11;;;;;;;0.08;0.08;;;18.40;99.90;;;;;;4941723;28;20052;-82
2022/08/01 03:32:38;;;;;;;0.05;0.05;;;18.40;99.90;;;;;;4952338;28;20054;-83
2022/08/01 03:35:06;;;;;;;0.00;0.00;;;18.40;99.90;;;;;;4949417;28;20113;-82
2022/08/01 03:37:38;;;;;;;0.00;0.00;;;18.40;99.90;;;;;;4948597;28;20089;-82
2022/08/01 03:40:33;;;;;;;0.00;0.00;;;18.50;99.90;;;;;;4934284;28;20054;-83
2022/08/01 03:43:04;;;;;;;0.00;0.00;;;18.50;99.90;;;;;;4925935;28;20058;-83
2022/08/01 03:45:38;;;;;;;0.00;0.00;;;18.50;99.90;;;;;;4948849;28;20035;-83
2022/08/01 03:48:22;;;;;;;0.00;0.00;;;18.50;99.90;;;;;;4949541;28;20118;-83
2022/08/01 03:50:51;;;;;;;0.00;0.00;;;18.40;99.90;;;;;;4951883;28;20089;-83
2022/08/01 03:53:22;;;;;;;0.00;0.00;;;18.50;99.90;;;;;;4947835;28;20043;-83
2022/08/01 03:55:51;;;;;;;0.00;0.00;;;18.50;99.90;;;;;;4944068;28;20031;-83
2022/08/01 03:58:19;;;;;;;0.00;0.00;;;18.50;99.90;;;;;;5015676;23;20050;-88
2022/08/01 04:00:46;;;;;;;0.00;0.00;;;18.60;99.90;;;;;;4975699;28;20054;-83
2022/08/01 04:03:14;;;;;;;0.00;0.00;;;19.40;99.90;;;;;;4966967;28;20055;-85
2022/08/01 04:05:42;;;;;;;0.00;0.00;;;18.60;99.90;;;;;;4970627;28;20062;-87
2022/08/01 04:08:09;;;;;;;0.00;0.00;;;18.60;99.90;;;;;;4975521;28;20051;-87
2022/08/01 04:10:36;;;;;;;0.00;0.00;;;18.60;99.90;;;;;;4976885;28;20074;-84
2022/08/01 04:13:04;;;;;;;0.00;0.00;;;18.80;99.90;;;;;;4977535;28;20054;-86
2022/08/01 04:15:31;;;;;;;0.00;0.00;;;18.80;99.90;;;;;;4974853;28;20038;-87
2022/08/01 04:17:58;;;;;;;0.00;0.00;;;18.80;99.90;;;;;;4977149;28;20053;-86
2022/08/01 04:20:25;;;;;;;0.00;0.00;;;18.90;99.90;;;;;;4972140;28;20050;-87
2022/08/01 04:22:52;;;;;;;0.00;0.00;;;18.90;99.90;;;;;;4978666;28;20047;-84
2022/08/01 04:25:24;;;;;;;0.00;0.00;;;18.90;99.90;;;;;;4976082;28;20050;-87
2022/08/01 04:27:52;;;;;;;0.00;0.00;;;18.80;99.90;;;;;;4975420;28;20561;-86
2022/08/01 04:30:25;;;;;;;0.00;0.00;;;18.90;99.90;;;;;;4973396;28;20047;-86
2022/08/01 04:32:54;;;;;;;0.00;0.00;;;18.90;99.90;;;;;;4973150;28;20102;-82
2022/08/01 04:35:24;;;;;;;0.00;0.00;;;19.30;99.90;;;;;;4976971;28;20094;-86
2022/08/01 04:38:16;;;;;;;0.00;0.00;;;19.00;99.90;;;;;;4976601;28;20051;-85
2022/08/01 04:40:45;;;;;;;0.00;0.00;;;20.70;99.90;;;;;;4973312;28;20062;-87
2022/08/01 04:43:12;;;;;;;0.00;0.00;;;18.90;99.90;;;;;;4972978;28;20062;-87
2022/08/01 04:45:43;;;;;;;0.00;0.00;;;19.00;99.90;;;;;;4974363;28;20043;-87
2022/08/01 04:48:13;;;;;;;0.00;0.00;;;19.00;99.90;;;;;;4975499;28;20054;-87
2022/08/01 04:50:41;;;;;;;0.00;0.00;;;19.10;99.90;;;;;;4989271;28;20447;-87
2022/08/01 04:53:13;;;;;;;0.00;0.00;;;19.00;99.90;;;;;;4977586;28;20059;-83
2022/08/01 04:55:40;;;;;;;0.00;0.00;;;19.10;99.90;;;;;;4978021;28;20070;-87
2022/08/01 04:58:08;;;;;;;0.00;0.00;;;19.20;99.90;;;;;;4973827;28;20062;-85
2022/08/01 05:00:35;;;;;;;0.00;0.00;;;19.10;99.90;;;;;;4971469;28;20097;-87
2022/08/01 05:03:03;;;;;;;0.00;0.00;;;19.10;99.90;;;;;;4978337;28;20069;-87
2022/08/01 05:05:31;;;;;;;0.00;0.00;;;19.10;99.90;;;;;;4974204;28;20086;-88
2022/08/01 05:07:58;;;;;;;0.00;0.00;;;18.90;99.90;;;;;;4978235;28;20043;-87
2022/08/01 05:10:26;;;;;;;0.00;0.00;;;18.90;99.90;;;;;;4980300;28;20051;-84
2022/08/01 05:12:53;;;;;;;0.00;0.00;;;21.10;99.90;;;;;;4979027;28;20050;-86
2022/08/01 05:15:21;;;;;;;0.00;0.00;;;19.00;99.90;;;;;;4977558;28;20050;-87
2022/08/01 05:17:47;;;;;;;0.00;0.00;;;19.00;99.90;;;;;;4982989;28;20410;-85
2022/08/01 05:20:16;;;;;;;0.00;0.00;;;19.90;99.90;;;;;;4976578;28;20046;-87
2022/08/01 05:22:43;;;;;;;0.00;0.00;;;19.10;99.90;;;;;;4976160;28;20050;-86
2022/08/01 05:25:10;;;;;;;0.00;0.00;;;19.10;99.90;;;;;;4977121;28;20110;-87
2022/08/01 05:27:41;;;;;;;0.00;0.00;;;19.10;99.90;;;;;;4979014;28;20117;-87
2022/08/01 05:30:10;;;;;;;0.00;0.00;;;19.00;99.90;;;;;;4972670;28;20063;-87
2022/08/01 05:32:37;;;;;;;0.00;0.00;;;19.00;99.90;;;;;;4977792;28;20054;-86
2022/08/01 05:35:05;;;;;;;0.00;0.00;;;19.00;99.90;;;;;;4977011;28;20071;-86
2022/08/01 05:37:34;;;;;;;0.00;0.00;;;19.10;99.90;;;;;;4979089;28;20098;-87
2022/08/01 05:40:01;;;;;;;0.00;0.00;;;19.10;99.90;;;;;;4976280;28;20042;-85
2022/08/01 05:42:28;;;;;;;0.00;0.00;;;19.30;99.90;;;;;;4977212;28;20129;-85
2022/08/01 05:44:55;;;;;;;0.00;0.00;;;19.30;99.90;;;;;;4969821;28;20043;-85
2022/08/01 05:47:21;;;;;;;0.00;0.00;;;19.20;99.90;;;;;;4975188;28;20396;-86
2022/08/01 05:49:49;;;;;;;0.00;0.00;;;19.10;99.90;;;;;;4975932;28;20117;-85
2022/08/01 05:52:16;;;;;;;0.00;0.00;;;19.10;99.90;;;;;;4978659;28;20042;-87
2022/08/01 05:54:44;;;;;;;0.00;0.00;;;19.20;99.90;;;;;;4977240;28;20050;-87
2022/08/01 05:57:11;;;;;;;0.00;0.00;;;19.30;99.90;;;;;;4972340;28;20058;-87
2022/08/01 05:59:38;;;;;;;0.00;0.00;;;19.30;99.90;;;;;;4975548;28;20050;-84
2022/08/01 06:02:05;;;;;;;0.00;0.00;;;19.30;99.90;;;;;;4971729;28;20051;-85
2022/08/01 06:04:32;;;;;;;0.00;0.00;;;19.20;99.90;;;;;;4975220;28;20054;-86
2022/08/01 06:06:59;;;;;;;0.00;0.00;;;19.10;99.90;;;;;;4974741;28;20412;-87
2022/08/01 06:09:26;;;;;;;0.00;0.00;;;19.10;99.90;;;;;;4977462;28;20062;-87
2022/08/01 06:11:54;;;;;;;0.00;0.00;;;19.20;99.90;;;;;;4973996;28;20063;-85
2022/08/01 06:14:21;;;;;;;0.00;0.00;;;19.30;99.90;;;;;;4967839;28;20055;-84
2022/08/01 06:16:47;;;;;;;0.00;0.00;;;19.40;99.90;;;;;;4978310;28;20236;-86
2022/08/01 06:19:14;;;;;;;0.00;0.00;;;19.40;99.90;;;;;;4969642;28;20490;-87
2022/08/01 06:21:41;;;;;;;0.00;0.00;;;19.30;99.90;;;;;;4974007;28;20046;-83
2022/08/01 06:24:08;;;;;;;0.00;0.00;;;19.10;99.90;;;;;;4996356;28;20093;-87
2022/08/01 06:26:36;;;;;;;0.00;0.00;;;18.70;99.90;;;;;;4977769;28;20046;-84
2022/08/01 06:29:05;;;;;;;0.00;0.00;;;18.70;99.90;;;;;;4972258;28;20050;-87
2022/08/01 06:31:31;;;;;;;0.00;0.00;;;18.80;99.90;;;;;;4980812;28;20604;-87
2022/08/01 06:34:00;;;;;;;0.00;0.00;;;18.80;99.90;;;;;;4972659;28;20085;-87
2022/08/01 06:36:27;;;;;;;0.00;0.00;;;18.90;99.90;;;;;;4968696;28;20503;-81
2022/08/01 06:38:53;;;;;;;0.00;0.00;;;18.90;99.90;;;;;;4985392;28;20055;-85
2022/08/01 06:41:20;;;;;;;0.00;0.00;;;18.90;99.90;;;;;;4980506;28;20503;-84
2022/08/01 06:43:47;;;;;;;0.00;0.00;;;18.90;99.90;;;;;;4960473;28;20062;-86
2022/08/01 06:46:15;;;;;;;0.00;0.00;;;18.90;99.90;;;;;;4993247;28;20519;-87
2022/08/01 06:48:42;;;;;;;0.00;0.00;;;19.10;99.90;;;;;;4972149;28;20054;-86
2022/08/01 06:51:11;;;;;;;0.00;0.00;;;19.00;99.90;;;;;;4973315;28;20487;-86
2022/08/01 06:53:38;;;;;;;0.00;0.00;;;19.30;99.90;;;;;;4969340;28;20090;-86
2022/08/01 06:56:06;;;;;;;0.00;0.00;;;19.30;99.90;;;;;;4973888;28;20047;-87
2022/08/01 06:58:34;;;;;;;0.00;0.00;;;19.60;99.90;;;;;;4974819;28;20305;-86
2022/08/01 07:01:02;;;;;;;0.00;0.00;;;19.20;99.90;;;;;;4976927;28;20055;-87
2022/08/01 07:03:32;;;;;;;0.00;0.00;;;19.30;99.90;;;;;;4975727;28;20446;-87
2022/08/01 07:06:23;;;;;;;0.00;0.00;;;19.30;99.90;;;;;;4975214;28;20042;-87
2022/08/01 07:08:50;;;;;;;0.00;0.00;;;19.30;99.90;;;;;;4972457;28;20491;-85
2022/08/01 07:11:18;;;;;;;0.00;0.00;;;19.20;99.90;;;;;;4976815;28;20050;-87
2022/08/01 07:13:47;;;;;;;0.00;0.00;;;19.30;99.90;;;;;;4976468;28;20046;-85
2022/08/01 07:16:15;;;;;;;0.00;0.00;;;19.40;99.90;;;;;;4979046;28;20058;-85
2022/08/01 07:18:43;;;;;;;0.00;0.00;;;19.50;99.90;;;;;;4979497;28;20055;-88
2022/08/01 07:21:10;;;;;;;0.00;0.00;;;19.30;99.90;;;;;;4973424;28;20051;-87
2022/08/01 07:23:57;;;;;;;0.00;0.00;;;19.50;99.90;;;;;;4995109;28;20037;-80
2022/08/01 07:26:27;;;;;;;0.00;0.00;;;19.70;99.90;;;;;;4987202;28;20307;-86
2022/08/01 07:28:54;;;;;;;0.00;0.00;;;19.70;99.90;;;;;;4995958;28;20880;-86
2022/08/01 07:31:20;;;;;;;0.00;0.00;;;19.60;99.90;;;;;;4994153;28;20066;-87
2022/08/01 07:33:49;;;;;;;0.00;0.00;;;19.70;99.90;;;;;;4978170;28;20467;-87
2022/08/01 07:36:16;;;;;;;0.00;0.00;;;19.70;99.90;;;;;;4981071;28;20117;-86
2022/08/01 07:38:42;;;;;;;0.00;0.00;;;19.70;99.90;;;;;;4976584;28;20046;-87
2022/08/01 07:41:10;;;;;;;0.00;0.00;;;19.80;99.90;;;;;;4976268;28;20047;-87
2022/08/01 07:43:37;;;;;;;0.00;0.00;;;19.80;99.90;;;;;;4971980;28;20051;-83
2022/08/01 07:46:04;;;;;;;0.00;0.00;;;19.90;99.90;;;;;;4969331;28;20038;-83
2022/08/01 07:48:31;;;;;;;0.00;0.00;;;19.90;99.90;;;;;;4972448;28;20042;-87
2022/08/01 07:50:59;;;;;;;0.00;0.00;;;20.00;99.90;;;;;;4991008;28;20093;-88
2022/08/01 07:53:26;;;;;;;0.00;0.00;;;20.00;99.90;;;;;;4974198;28;20423;-85
2022/08/01 07:55:53;;;;;;;0.00;0.00;;;20.20;99.90;;;;;;4972008;28;20050;-87
2022/08/01 07:58:20;;;;;;;0.00;0.00;;;20.40;99.90;;;;;;4971008;28;20396;-86
2022/08/01 08:00:47;;;;;;;0.00;0.00;;;21.40;99.90;;;;;;4981952;28;20051;-86
2022/08/01 08:03:14;;;;;;;0.00;0.00;;;20.00;99.90;;;;;;4969034;28;20051;-87
2022/08/01 08:05:40;;;;;;;0.00;0.00;;;20.10;99.90;;;;;;4972242;28;20499;-85
2022/08/01 08:08:27;;;;;;;0.00;0.00;;;19.90;99.90;;;;;;4987863;28;20051;-87
2022/08/01 08:10:54;;;;;;;0.00;0.00;;;19.70;99.90;;;;;;4968986;28;20062;-84
2022/08/01 08:13:21;;;;;;;0.00;0.00;;;19.80;99.90;;;;;;4970025;28;20462;-85
2022/08/01 08:15:48;;;;;;;0.00;0.00;;;19.90;99.90;;;;;;4970759;28;20035;-83
2022/08/01 08:18:15;;;;;;;0.00;0.00;;;20.10;99.90;;;;;;4972946;28;20074;-85
2022/08/01 08:20:41;;;;;;;0.00;0.00;;;20.20;99.90;;;;;;4988821;28;20241;-85
2022/08/01 08:26:11;;;;;;;0.00;0.00;;;20.30;99.90;;;;;;4967671;28;20082;-85
2022/08/01 08:28:38;;;;;;;0.00;0.00;;;20.20;99.90;;;;;;4971409;28;20047;-85
2022/08/01 08:31:06;;;;;;;0.00;0.00;;;20.20;99.90;;;;;;4968845;28;20046;-84
2022/08/01 08:33:51;;;;;;;0.00;0.00;;;20.20;99.90;;;;;;4972456;28;20097;-85
2022/08/01 08:36:18;;;;;;;0.00;0.00;;;20.20;99.90;;;;;;4973958;28;20039;-85
2022/08/01 08:38:45;;;;;;;0.00;0.00;;;20.10;99.90;;;;;;4972892;28;20097;-85
2022/08/01 08:41:14;;;;;;;0.00;0.00;;;20.30;99.90;;;;;;4974246;28;20520;-85
2022/08/01 08:43:47;;;;;;;0.00;0.00;;;20.40;99.90;;;;;;4978148;28;20058;-85
2022/08/01 08:46:14;;;;;;;0.00;0.00;;;20.70;99.90;;;;;;4976776;28;20050;-83
2022/08/01 08:48:41;;;;;;;0.00;0.00;;;21.30;99.90;;;;;;4977606;28;20042;-83
2022/08/01 08:51:11;;;;;;;0.00;0.00;;;20.90;99.90;;;;;;4975221;28;20577;-83
2022/08/01 08:53:43;;;;;;;0.00;0.00;;;20.80;99.90;;;;;;4973491;28;20090;-84
2022/08/01 08:56:13;;;;;;;0.00;0.00;;;20.60;99.90;;;;;;4972814;28;20054;-84
2022/08/01 08:58:43;;;;;;;0.00;0.00;;;22.90;99.90;;;;;;4974254;28;20074;-84
2022/08/01 09:01:11;;;;;;;0.00;0.00;;;20.50;99.90;;;;;;4978169;28;20035;-86
2022/08/01 09:03:38;;;;;;;0.00;0.00;;;20.60;99.90;;;;;;4973564;28;20106;-85
2022/08/01 09:06:06;;;;;;;0.00;0.00;;;20.60;99.90;;;;;;4980348;28;20102;-85
2022/08/01 09:08:33;;;;;;;0.00;0.00;;;20.60;99.90;;;;;;4975582;28;20051;-85
2022/08/01 09:11:00;;;;;;;0.00;0.00;;;20.60;99.90;;;;;;4993704;28;20171;-84
2022/08/01 09:13:28;;;;;;;0.00;0.00;;;20.80;99.90;;;;;;4977851;28;20050;-84
2022/08/01 09:15:58;;;;;;;0.00;0.00;;;20.90;99.90;;;;;;4975524;28;20074;-84
2022/08/01 09:18:27;;;;;;;0.00;0.00;;;21.10;99.90;;;;;;4978375;28;20065;-85
2022/08/01 09:21:23;;;;;;;0.00;0.00;;;21.20;99.90;;;;;;4974881;28;20113;-85
2022/08/01 09:23:52;;;;;;;0.00;0.00;;;21.00;99.90;;;;;;4927019;28;20050;-84
2022/08/01 09:26:28;;;;;;;0.00;0.00;;;22.50;99.90;;;;;;4967886;28;20047;-84
2022/08/01 09:28:59;;;;;;;0.00;0.00;;;21.20;99.90;;;;;;4976553;28;20046;-85
2022/08/01 09:31:28;;;;;;;0.00;0.00;;;21.20;99.90;;;;;;4980927;28;20558;-84
2022/08/01 09:34:04;;;;;;;0.00;0.00;;;21.40;99.90;;;;;;4978179;28;20529;-85
2022/08/01 09:36:44;;;;;;;0.00;0.00;;;21.40;99.90;;;;;;4981216;28;20055;-85
2022/08/01 09:39:12;;;;;;;;;;;21.40;99.90;;;;;;4975745;28;20047;-85
2022/08/01 09:41:38;;;;;;;0.00;0.00;;;21.40;99.90;;;;;;4982717;28;19930;-84
2022/08/01 09:44:07;;;;;;;0.00;0.00;;;21.20;99.90;;;;;;4982288;28;20106;-84
2022/08/01 09:46:34;;;;;;;0.00;0.00;;;21.00;99.90;;;;;;4979505;28;20054;-84
2022/08/01 09:49:03;;;;;;;0.00;0.00;;;20.80;99.90;;;;;;4982024;28;20116;-85
2022/08/01 09:51:36;;;;;;;0.00;0.00;;;20.80;99.90;;;;;;4977013;28;20071;-84
2022/08/01 09:54:30;;;;;;;0.00;0.00;;;20.80;99.90;;;;;;4977003;28;20066;-84
2022/08/01 09:59:37;;;;;;;0.00;0.00;;;21.00;99.90;;;;;;4990162;28;20046;-82
2022/08/01 10:02:30;;;;;;;0.00;0.00;;;21.30;99.90;;;;;;4992718;28;20066;-84
2022/08/01 10:04:57;;;;;;;0.00;0.00;;;21.30;99.90;;;;;;4991448;28;20073;-83
2022/08/01 10:07:34;;;;;;;0.00;0.00;;;21.40;99.90;;;;;;4993362;28;20054;-81
2022/08/01 10:10:11;;;;;;;0.00;0.00;;;21.50;99.90;;;;;;4989994;28;20406;-83
2022/08/01 10:12:39;;;;;;;0.00;0.00;;;21.50;99.90;;;;;;4993462;28;20510;-83
2022/08/01 10:15:15;;;;;;;0.00;0.00;;;21.60;99.90;;;;;;4990261;28;20046;-84
2022/08/01 10:17:46;;;;;;;0.00;0.00;;;21.40;99.90;;;;;;4991930;28;20042;-85
2022/08/01 10:20:19;;;;;;;0.00;0.00;;;21.60;99.90;;;;;;4991933;28;20057;-85
2022/08/01 10:22:59;;;;;;;0.00;0.00;;;21.60;99.90;;;;;;4991091;28;20049;-83
2022/08/01 10:25:36;;;;;;;0.00;0.00;;;21.60;99.90;;;;;;4988278;28;20049;-84
2022/08/01 10:28:16;;;;;;;0.00;0.00;;;21.50;99.90;;;;;;4990767;28;20050;-84
2022/08/01 10:30:47;;;;;;;0.00;0.00;;;21.30;99.90;;;;;;4991085;28;20047;-84
2022/08/01 10:33:15;;;;;;;;;;;21.20;99.90;;;;;;4988380;28;20058;-85
2022/08/01 10:36:04;;;;;;;0.00;0.00;;;21.30;99.90;;;;;;4993069;28;20385;-83
2022/08/01 10:38:34;;;;;;;0.00;0.00;;;21.30;99.90;;;;;;4993083;28;20124;-84
2022/08/01 10:41:04;;;;;;;0.00;0.00;;;21.50;99.90;;;;;;4991874;28;20061;-85
2022/08/01 10:43:32;;;;;;;0.00;0.00;;;21.60;99.90;;;;;;4989128;28;20054;-85
2022/08/01 10:46:03;;;;;;;0.00;0.00;;;21.80;99.90;;;;;;4988431;28;20035;-84
2022/08/01 10:48:39;;;;;;;0.00;0.00;;;21.90;99.90;;;;;;4997611;28;20630;-83
2022/08/01 10:51:07;;;;;;;0.00;0.00;;;21.70;99.90;;;;;;4988463;28;20050;-83
2022/08/01 10:53:50;;;;;;;0.00;0.00;;;21.50;99.90;;;;;;4986932;28;20101;-84
2022/08/01 10:56:21;;;;;;;0.00;0.00;;;21.50;99.90;;;;;;4989087;28;20078;-84
2022/08/01 10:59:01;;;;;;;0.00;0.00;;;21.80;99.90;;;;;;4988421;28;20445;-84
2022/08/01 11:01:33;;;;;;;0.00;0.00;;;21.80;99.90;;;;;;4988345;28;20046;-85
2022/08/01 11:04:07;;;;;;;0.00;0.00;;;22.10;99.90;;;;;;4980458;28;20046;-84
2022/08/01 11:06:52;;;;;;;0.00;0.00;;;22.00;99.90;;;;;;5002547;28;20035;-82
2022/08/01 11:09:28;;;;;;;0.00;0.00;;;21.60;99.90;;;;;;4989945;28;20073;-83
2022/08/01 11:12:08;;;;;;;0.00;0.00;;;21.50;99.90;;;;;;4983977;28;20081;-85
2022/08/01 11:15:24;;;;;;;0.00;0.00;;;21.50;99.90;;;;;;5001933;28;20061;-84
2022/08/01 11:17:59;;;;;;;0.00;0.00;;;21.70;99.90;;;;;;4978506;28;20042;-80
2022/08/01 11:20:31;;;;;;;0.00;0.00;;;21.80;99.90;;;;;;4989099;28;20034;-84
2022/08/01 11:23:27;;;;;;;0.00;0.00;;;22.00;99.90;;;;;;4991800;28;20425;-83
2022/08/01 11:26:12;;;;;;;0.00;0.00;;;21.90;99.90;;;;;;4990050;28;20042;-83
2022/08/01 11:28:39;;;;;;;0.00;0.00;;;21.80;99.90;;;;;;4988824;28;20050;-84
2022/08/01 11:31:29;;;;;;;0.00;0.00;;;21.80;99.90;;;;;;4987979;28;20042;-83
2022/08/01 11:34:05;;;;;;;0.00;0.00;;;21.90;99.90;;;;;;4986955;28;20046;-82
2022/08/01 11:36:32;;;;;;;0.00;0.00;;;22.10;99.90;;;;;;4985846;28;20054;-82
2022/08/01 11:39:19;;;;;;;0.00;0.00;;;22.30;99.90;;;;;;4986874;28;20065;-83
2022/08/01 11:41:47;;;;;;;0.00;0.00;;;22.10;99.90;;;;;;4988284;28;20030;-83
2022/08/01 11:44:18;;;;;;;0.00;0.00;;;22.10;99.90;;;;;;4990298;28;20054;-83
2022/08/01 11:47:03;;;;;;;0.00;0.00;;;22.10;99.90;;;;;;4986794;28;20406;-83
2022/08/01 11:49:49;;;;;;;0.00;0.00;;;22.10;99.90;;;;;;4992420;28;20053;-83
2022/08/01 11:52:19;;;;;;;0.00;0.00;;;21.90;99.90;;;;;;4985848;28;20498;-83
2022/08/01 11:54:47;;;;;;;0.00;0.00;;;22.10;99.90;;;;;;4989747;28;20066;-83
2022/08/01 11:57:19;;;;;;;0.00;0.00;;;22.40;99.90;;;;;;4985502;28;20046;-83
2022/08/01 11:59:51;;;;;;;0.00;0.00;;;22.00;99.90;;;;;;4981644;28;20495;-83
2022/08/01 12:02:31;;;;;;;0.00;0.00;;;22.30;99.90;;;;;;4979569;28;20073;-83
2022/08/01 12:05:01;;;;;;;0.00;0.00;;;22.20;99.90;;;;;;4984507;28;20498;-83
2022/08/01 12:07:32;;;;;;;0.00;0.00;;;22.00;99.90;;;;;;4984311;28;20054;-83
2022/08/01 12:10:01;;;;;;;0.00;0.00;;;22.30;99.90;;;;;;4986839;28;20518;-82
2022/08/01 12:12:29;;;;;;;0.00;0.00;;;22.40;99.90;;;;;;4986199;28;20049;-83
2022/08/01 12:14:58;;;;;;;0.00;0.00;;;22.40;99.90;;;;;;4987758;28;20046;-83
2022/08/01 12:17:33;;;;;;;0.00;0.00;;;22.30;99.90;;;;;;4990078;28;20499;-83
2022/08/01 12:20:03;;;;;;;0.00;0.00;;;22.40;99.90;;;;;;4982357;28;20046;-83
2022/08/01 12:22:30;;;;;;;0.00;0.00;;;22.30;99.90;;;;;;4988506;28;20046;-83
2022/08/01 12:25:05;;;;;;;0.00;0.00;;;22.30;99.90;;;;;;4992193;28;20073;-83
2022/08/01 12:27:32;;;;;;;0.00;0.00;;;22.20;99.90;;;;;;4987438;28;20105;-83
2022/08/01 12:29:59;;;;;;;0.00;0.00;;;22.30;99.90;;;;;;4986791;28;20034;-83
2022/08/01 12:32:30;;;;;;;0.00;0.00;;;22.30;99.90;;;;;;4987097;28;20101;-83
2022/08/01 12:35:05;;;;;;;0.00;0.00;;;22.40;99.90;;;;;;4986703;28;20521;-83
2022/08/01 12:37:35;;;;;;;0.00;0.00;;;22.60;99.90;;;;;;4989211;28;20038;-83
2022/08/01 12:40:08;;;;;;;0.00;0.00;;;22.60;99.90;;;;;;4989246;28;20050;-82
2022/08/01 12:42:36;;;;;;;0.00;0.00;;;22.20;99.90;;;;;;4991294;28;20100;-83
2022/08/01 12:45:04;;;;;;;0.00;0.00;;;22.80;99.90;;;;;;4988558;28;20042;-82
2022/08/01 12:47:31;;;;;;;0.00;0.00;;;22.70;99.90;;;;;;4988298;28;20492;-83
2022/08/01 12:49:58;;;;;;;0.00;0.00;;;22.70;99.90;;;;;;4990118;28;20038;-83
2022/08/01 12:52:26;;;;;;;0.00;0.00;;;22.50;99.90;;;;;;4988206;28;20494;-84
2022/08/01 12:55:05;;;;;;;0.00;0.00;;;22.80;99.90;;;;;;4985596;28;20080;-83
2022/08/01 12:57:37;;;;;;;0.00;0.00;;;22.80;99.90;;;;;;4982910;28;20045;-83
2022/08/01 13:00:07;;;;;;;0.00;0.00;;;22.60;99.90;;;;;;4990110;28;20035;-83
2022/08/01 13:02:34;;;;;;;0.00;0.00;;;22.50;99.90;;;;;;4986757;28;20108;-82
2022/08/01 13:05:02;;;;;;;0.00;0.00;;;22.50;99.90;;;;;;4989078;28;20046;-84
2022/08/01 13:07:43;;;;;;;0.00;0.00;;;22.70;99.60;;;;;;4988522;28;20883;-83
2022/08/01 13:10:13;;;;;;;0.00;0.00;;;22.80;99.60;;;;;;4984456;28;20093;-81